sensor_id;sensor_type;location;lat;lon;timestamp;temperature;humidity
12408;DHT22;6268;48.188;17.134;2023-05-02T00:00:19;13.80;99.90
12408;DHT22;6268;48.188;17.134;2023-05-02T00:02:48;13.70;99.90
12408;DHT22;6268;48.188;17.134;2023-05-02T00:05:17;13.70;99.90
12408;DHT22;6268;48.188;17.134;2023-05-02T00:07:46;13.70;99.90
12408;DHT22;6268;48.188;17.134;2023-05-02T00:10:15;13.60;99.90
12408;DHT22;6268;48.188;17.134;2023-05-02T00:12:45;13.60;99.90
12408;DHT22;6268;48.188;17.134;2023-05-02T00:15:14;13.70;99.90
12408;DHT22;6268;48.188;17.134;2023-05-02T00:17:42;13.70;99.90
12408;DHT22;6268;48.188;17.134;2023-05-02T00:20:12;13.80;99.90
12408;DHT22;6268;48.188;17.134;2023-05-02T00:22:40;13.90;99.90
12408;DHT22;6268;48.188;17.134;2023-05-02T00:25:09;13.80;99.90
12408;DHT22;6268;48.188;17.134;2023-05-02T00:27:42;13.80;99.90
12408;DHT22;6268;48.188;17.134;2023-05-02T00:30:14;13.80;99.90
12408;DHT22;6268;48.188;17.134;2023-05-02T00:32:44;13.80;99.90
12408;DHT22;6268;48.188;17.134;2023-05-02T00:35:12;13.80;99.90
12408;DHT22;6268;48.188;17.134;2023-05-02T00:37:41;13.70;99.90
12408;DHT22;6268;48.188;17.134;2023-05-02T00:40:11;13.60;99.90
12408;DHT22;6268;48.188;17.134;2023-05-02T00:42:40;13.40;99.90
12408;DHT22;6268;48.188;17.134;2023-05-02T00:45:09;13.40;99.90
12408;DHT22;6268;48.188;17.134;2023-05-02T00:47:40;13.30;99.90
12408;DHT22;6268;48.188;17.134;2023-05-02T00:50:09;13.30;99.90
12408;DHT22;6268;48.188;17.134;2023-05-02T00:52:38;13.20;99.90
12408;DHT22;6268;48.188;17.134;2023-05-02T00:55:07;13.20;99.90
12408;DHT22;6268;48.188;17.134;2023-05-02T00:57:36;13.20;99.90
12408;DHT22;6268;48.188;17.134;2023-05-02T01:00:06;13.20;99.90
12408;DHT22;6268;48.188;17.134;2023-05-02T01:02:45;13.10;99.90
12408;DHT22;6268;48.188;17.134;2023-05-02T01:05:24;13.10;99.90
12408;DHT22;6268;48.188;17.134;2023-05-02T01:08:09;13.10;99.90
12408;DHT22;6268;48.188;17.134;2023-05-02T01:10:47;13.00;99.90
12408;DHT22;6268;48.188;17.134;2023-05-02T01:13:21;13.10;99.90
12408;DHT22;6268;48.188;17.134;2023-05-02T01:15:55;12.70;99.90
12408;DHT22;6268;48.188;17.134;2023-05-02T01:18:31;12.60;99.90
12408;DHT22;6268;48.188;17.134;2023-05-02T01:21:06;12.60;99.90
12408;DHT22;6268;48.188;17.134;2023-05-02T01:23:43;12.70;99.90
12408;DHT22;6268;48.188;17.134;2023-05-02T01:26:26;12.80;99.90
12408;DHT22;6268;48.188;17.134;2023-05-02T01:29:04;12.90;99.90
12408;DHT22;6268;48.188;17.134;2023-05-02T01:31:36;12.90;99.90
12408;DHT22;6268;48.188;17.134;2023-05-02T01:34:09;12.80;99.90
12408;DHT22;6268;48.188;17.134;2023-05-02T01:36:42;12.80;99.90
12408;DHT22;6268;48.188;17.134;2023-05-02T01:39:18;12.80;99.90
12408;DHT22;6268;48.188;17.134;2023-05-02T01:41:49;12.80;99.90
12408;DHT22;6268;48.188;17.134;2023-05-02T01:44:22;12.90;99.90
12408;DHT22;6268;48.188;17.134;2023-05-02T01:46:53;12.80;99.90
12408;DHT22;6268;48.188;17.134;2023-05-02T01:49:23;12.80;99.90
12408;DHT22;6268;48.188;17.134;2023-05-02T01:51:54;12.80;99.90
12408;DHT22;6268;48.188;17.134;2023-05-02T01:54:24;12.80;99.90
12408;DHT22;6268;48.188;17.134;2023-05-02T01:56:54;12.90;99.90
12408;DHT22;6268;48.188;17.134;2023-05-02T01:59:26;12.80;99.90
12408;DHT22;6268;48.188;17.134;2023-05-02T02:01:58;12.70;99.90
12408;DHT22;6268;48.188;17.134;2023-05-02T02:04:30;12.60;99.90
12408;DHT22;6268;48.188;17.134;2023-05-02T02:07:05;12.50;99.90
12408;DHT22;6268;48.188;17.134;2023-05-02T02:09:37;12.50;99.90
12408;DHT22;6268;48.188;17.134;2023-05-02T02:12:10;12.50;99.90
12408;DHT22;6268;48.188;17.134;2023-05-02T02:14:47;12.50;99.90
12408;DHT22;6268;48.188;17.134;2023-05-02T02:17:24;12.50;99.90
12408;DHT22;6268;48.188;17.134;2023-05-02T02:20:00;12.50;99.90
12408;DHT22;6268;48.188;17.134;2023-05-02T02:22:37;12.50;99.90
12408;DHT22;6268;48.188;17.134;2023-05-02T02:25:10;12.60;99.90
12408;DHT22;6268;48.188;17.134;2023-05-02T02:27:40;12.60;99.90
12408;DHT22;6268;48.188;17.134;2023-05-02T02:30:11;12.70;99.90
12408;DHT22;6268;48.188;17.134;2023-05-02T02:32:40;12.60;99.90
12408;DHT22;6268;48.188;17.134;2023-05-02T02:35:09;12.70;99.90
12408;DHT22;6268;48.188;17.134;2023-05-02T02:37:44;12.70;99.90
12408;DHT22;6268;48.188;17.134;2023-05-02T02:40:20;12.60;99.90
12408;DHT22;6268;48.188;17.134;2023-05-02T02:43:01;12.60;99.90
12408;DHT22;6268;48.188;17.134;2023-05-02T02:45:40;12.60;99.90
12408;DHT22;6268;48.188;17.134;2023-05-02T02:48:19;12.60;99.90
12408;DHT22;6268;48.188;17.134;2023-05-02T02:51:04;12.50;99.90
12408;DHT22;6268;48.188;17.134;2023-05-02T02:53:49;12.40;99.90
12408;DHT22;6268;48.188;17.134;2023-05-02T02:56:27;12.40;99.90
12408;DHT22;6268;48.188;17.134;2023-05-02T02:59:13;12.30;99.90
12408;DHT22;6268;48.188;17.134;2023-05-02T03:01:54;12.30;99.90
12408;DHT22;6268;48.188;17.134;2023-05-02T03:04:29;12.20;99.90
12408;DHT22;6268;48.188;17.134;2023-05-02T03:07:00;12.30;99.90
12408;DHT22;6268;48.188;17.134;2023-05-02T03:09:40;12.20;99.90
12408;DHT22;6268;48.188;17.134;2023-05-02T03:12:09;12.20;99.90
12408;DHT22;6268;48.188;17.134;2023-05-02T03:14:38;12.20;99.90
12408;DHT22;6268;48.188;17.134;2023-05-02T03:17:08;12.10;99.90
12408;DHT22;6268;48.188;17.134;2023-05-02T03:19:37;12.00;99.90
12408;DHT22;6268;48.188;17.134;2023-05-02T03:22:07;12.00;99.90
12408;DHT22;6268;48.188;17.134;2023-05-02T03:24:35;12.00;99.90
12408;DHT22;6268;48.188;17.134;2023-05-02T03:27:04;12.00;99.90
12408;DHT22;6268;48.188;17.134;2023-05-02T03:29:33;11.90;99.90
12408;DHT22;6268;48.188;17.134;2023-05-02T03:32:01;11.90;99.90
12408;DHT22;6268;48.188;17.134;2023-05-02T03:34:32;12.00;99.90
12408;DHT22;6268;48.188;17.134;2023-05-02T03:37:00;12.00;99.90
12408;DHT22;6268;48.188;17.134;2023-05-02T03:39:30;12.00;99.90
12408;DHT22;6268;48.188;17.134;2023-05-02T03:41:58;12.00;99.90
12408;DHT22;6268;48.188;17.134;2023-05-02T03:44:27;12.00;99.90
12408;DHT22;6268;48.188;17.134;2023-05-02T03:46:56;11.90;99.90
12408;DHT22;6268;48.188;17.134;2023-05-02T03:49:25;12.00;99.90
12408;DHT22;6268;48.188;17.134;2023-05-02T03:51:55;12.00;99.90
12408;DHT22;6268;48.188;17.134;2023-05-02T03:54:24;11.90;99.90
12408;DHT22;6268;48.188;17.134;2023-05-02T03:56:53;12.00;99.90
12408;DHT22;6268;48.188;17.134;2023-05-02T03:59:22;12.10;99.90
12408;DHT22;6268;48.188;17.134;2023-05-02T04:01:50;12.10;99.90
12408;DHT22;6268;48.188;17.134;2023-05-02T04:04:19;12.00;99.90
12408;DHT22;6268;48.188;17.134;2023-05-02T04:06:48;12.00;99.90
12408;DHT22;6268;48.188;17.134;2023-05-02T04:09:18;12.00;99.90
12408;DHT22;6268;48.188;17.134;2023-05-02T04:11:52;12.20;99.90
12408;DHT22;6268;48.188;17.134;2023-05-02T04:14:21;12.20;99.90
12408;DHT22;6268;48.188;17.134;2023-05-02T04:16:50;12.20;99.90
12408;DHT22;6268;48.188;17.134;2023-05-02T04:19:19;12.30;99.90
12408;DHT22;6268;48.188;17.134;2023-05-02T04:21:48;12.30;99.90
12408;DHT22;6268;48.188;17.134;2023-05-02T04:24:18;12.50;99.90
12408;DHT22;6268;48.188;17.134;2023-05-02T04:26:47;12.70;99.90
12408;DHT22;6268;48.188;17.134;2023-05-02T04:29:16;12.90;99.90
12408;DHT22;6268;48.188;17.134;2023-05-02T04:31:44;13.00;99.90
12408;DHT22;6268;48.188;17.134;2023-05-02T04:34:13;13.30;99.90
12408;DHT22;6268;48.188;17.134;2023-05-02T04:36:44;13.50;99.90
12408;DHT22;6268;48.188;17.134;2023-05-02T04:39:13;13.70;99.90
12408;DHT22;6268;48.188;17.134;2023-05-02T04:41:43;13.70;99.90
12408;DHT22;6268;48.188;17.134;2023-05-02T04:44:13;13.70;99.90
12408;DHT22;6268;48.188;17.134;2023-05-02T04:46:42;13.60;99.90
12408;DHT22;6268;48.188;17.134;2023-05-02T04:49:11;13.60;99.90
12408;DHT22;6268;48.188;17.134;2023-05-02T04:51:39;13.70;99.90
12408;DHT22;6268;48.188;17.134;2023-05-02T04:54:08;13.80;99.90
12408;DHT22;6268;48.188;17.134;2023-05-02T04:56:37;13.90;99.90
12408;DHT22;6268;48.188;17.134;2023-05-02T04:59:08;14.10;99.90
12408;DHT22;6268;48.188;17.134;2023-05-02T05:01:37;14.40;99.90
12408;DHT22;6268;48.188;17.134;2023-05-02T05:04:06;14.50;99.90
12408;DHT22;6268;48.188;17.134;2023-05-02T05:06:35;14.90;99.90
12408;DHT22;6268;48.188;17.134;2023-05-02T05:09:04;15.40;99.90
12408;DHT22;6268;48.188;17.134;2023-05-02T05:11:33;15.80;99.90
12408;DHT22;6268;48.188;17.134;2023-05-02T05:14:01;16.20;99.90
12408;DHT22;6268;48.188;17.134;2023-05-02T05:16:32;16.50;99.90
12408;DHT22;6268;48.188;17.134;2023-05-02T05:19:01;16.50;99.90
12408;DHT22;6268;48.188;17.134;2023-05-02T05:21:30;16.90;99.90
12408;DHT22;6268;48.188;17.134;2023-05-02T05:23:59;17.40;99.90
12408;DHT22;6268;48.188;17.134;2023-05-02T05:26:28;18.00;99.90
12408;DHT22;6268;48.188;17.134;2023-05-02T05:28:57;18.70;99.90
12408;DHT22;6268;48.188;17.134;2023-05-02T05:31:25;19.30;99.90
12408;DHT22;6268;48.188;17.134;2023-05-02T05:33:55;19.50;99.90
12408;DHT22;6268;48.188;17.134;2023-05-02T05:36:24;19.70;99.90
12408;DHT22;6268;48.188;17.134;2023-05-02T05:38:53;20.20;99.90
12408;DHT22;6268;48.188;17.134;2023-05-02T05:41:22;19.90;99.90
12408;DHT22;6268;48.188;17.134;2023-05-02T05:43:51;19.20;99.90
12408;DHT22;6268;48.188;17.134;2023-05-02T05:46:20;19.00;99.90
12408;DHT22;6268;48.188;17.134;2023-05-02T05:48:49;19.20;99.90
12408;DHT22;6268;48.188;17.134;2023-05-02T05:51:19;19.10;99.90
12408;DHT22;6268;48.188;17.134;2023-05-02T05:53:47;18.90;99.90
12408;DHT22;6268;48.188;17.134;2023-05-02T05:56:16;18.70;99.90
12408;DHT22;6268;48.188;17.134;2023-05-02T05:58:45;18.40;99.90
12408;DHT22;6268;48.188;17.134;2023-05-02T06:01:13;18.20;99.90
12408;DHT22;6268;48.188;17.134;2023-05-02T06:03:42;17.90;99.90
12408;DHT22;6268;48.188;17.134;2023-05-02T06:06:11;17.60;99.90
12408;DHT22;6268;48.188;17.134;2023-05-02T06:08:41;17.60;99.90
12408;DHT22;6268;48.188;17.134;2023-05-02T06:11:10;17.70;99.90
12408;DHT22;6268;48.188;17.134;2023-05-02T06:13:39;18.00;99.90
12408;DHT22;6268;48.188;17.134;2023-05-02T06:16:07;18.10;99.90
12408;DHT22;6268;48.188;17.134;2023-05-02T06:18:36;18.00;99.90
12408;DHT22;6268;48.188;17.134;2023-05-02T06:21:05;17.80;99.90
12408;DHT22;6268;48.188;17.134;2023-05-02T06:23:34;17.70;99.90
12408;DHT22;6268;48.188;17.134;2023-05-02T06:26:05;17.50;99.90
12408;DHT22;6268;48.188;17.134;2023-05-02T06:28:34;17.30;99.90
12408;DHT22;6268;48.188;17.134;2023-05-02T06:31:03;17.10;99.90
12408;DHT22;6268;48.188;17.134;2023-05-02T06:33:33;17.30;99.90
12408;DHT22;6268;48.188;17.134;2023-05-02T06:36:03;17.60;99.90
12408;DHT22;6268;48.188;17.134;2023-05-02T06:38:31;18.00;99.90
12408;DHT22;6268;48.188;17.134;2023-05-02T06:41:00;18.30;99.90
12408;DHT22;6268;48.188;17.134;2023-05-02T06:43:30;18.60;99.90
12408;DHT22;6268;48.188;17.134;2023-05-02T06:46:00;19.10;99.90
12408;DHT22;6268;48.188;17.134;2023-05-02T06:48:29;19.50;99.90
12408;DHT22;6268;48.188;17.134;2023-05-02T06:50:57;19.80;99.90
12408;DHT22;6268;48.188;17.134;2023-05-02T06:53:26;19.70;99.90
12408;DHT22;6268;48.188;17.134;2023-05-02T06:55:58;19.70;99.90
12408;DHT22;6268;48.188;17.134;2023-05-02T06:58:27;19.50;99.90
12408;DHT22;6268;48.188;17.134;2023-05-02T07:00:58;19.50;99.90
12408;DHT22;6268;48.188;17.134;2023-05-02T07:03:27;19.50;99.90
12408;DHT22;6268;48.188;17.134;2023-05-02T07:05:56;19.20;99.90
12408;DHT22;6268;48.188;17.134;2023-05-02T07:08:25;19.00;99.90
12408;DHT22;6268;48.188;17.134;2023-05-02T07:10:53;18.90;99.90
12408;DHT22;6268;48.188;17.134;2023-05-02T07:13:22;18.60;99.80
12408;DHT22;6268;48.188;17.134;2023-05-02T07:15:52;18.20;95.00
12408;DHT22;6268;48.188;17.134;2023-05-02T07:18:22;18.10;95.50
12408;DHT22;6268;48.188;17.134;2023-05-02T07:20:51;17.80;93.40
12408;DHT22;6268;48.188;17.134;2023-05-02T07:23:20;18.10;91.60
12408;DHT22;6268;48.188;17.134;2023-05-02T07:25:48;18.30;90.00
12408;DHT22;6268;48.188;17.134;2023-05-02T07:28:17;18.80;87.30
12408;DHT22;6268;48.188;17.134;2023-05-02T07:30:46;19.10;84.90
12408;DHT22;6268;48.188;17.134;2023-05-02T07:33:15;19.90;86.00
12408;DHT22;6268;48.188;17.134;2023-05-02T07:35:45;20.20;88.80
12408;DHT22;6268;48.188;17.134;2023-05-02T07:38:14;20.00;99.00
12408;DHT22;6268;48.188;17.134;2023-05-02T07:40:43;19.80;99.90
12408;DHT22;6268;48.188;17.134;2023-05-02T07:43:13;19.70;99.90
12408;DHT22;6268;48.188;17.134;2023-05-02T07:45:42;19.80;99.90
12408;DHT22;6268;48.188;17.134;2023-05-02T07:48:11;20.40;99.90
12408;DHT22;6268;48.188;17.134;2023-05-02T07:50:40;21.00;99.90
12408;DHT22;6268;48.188;17.134;2023-05-02T07:53:10;21.60;98.30
12408;DHT22;6268;48.188;17.134;2023-05-02T07:55:38;22.10;96.60
12408;DHT22;6268;48.188;17.134;2023-05-02T07:58:07;22.70;94.10
12408;DHT22;6268;48.188;17.134;2023-05-02T08:00:36;23.20;91.90
12408;DHT22;6268;48.188;17.134;2023-05-02T08:03:05;23.80;91.00
12408;DHT22;6268;48.188;17.134;2023-05-02T08:05:33;24.00;86.80
12408;DHT22;6268;48.188;17.134;2023-05-02T08:08:02;23.90;84.70
12408;DHT22;6268;48.188;17.134;2023-05-02T08:10:33;23.50;83.80
12408;DHT22;6268;48.188;17.134;2023-05-02T08:13:01;23.10;86.70
12408;DHT22;6268;48.188;17.134;2023-05-02T08:15:30;23.20;84.20
12408;DHT22;6268;48.188;17.134;2023-05-02T08:17:59;24.20;81.50
12408;DHT22;6268;48.188;17.134;2023-05-02T08:20:28;24.90;81.40
12408;DHT22;6268;48.188;17.134;2023-05-02T08:22:57;25.60;74.90
12408;DHT22;6268;48.188;17.134;2023-05-02T08:25:26;25.20;74.60
12408;DHT22;6268;48.188;17.134;2023-05-02T08:27:57;25.20;74.80
12408;DHT22;6268;48.188;17.134;2023-05-02T08:30:26;25.40;74.60
12408;DHT22;6268;48.188;17.134;2023-05-02T08:32:55;25.30;73.70
12408;DHT22;6268;48.188;17.134;2023-05-02T08:35:23;25.10;73.70
12408;DHT22;6268;48.188;17.134;2023-05-02T08:37:52;24.70;74.60
12408;DHT22;6268;48.188;17.134;2023-05-02T08:40:21;24.70;73.80
12408;DHT22;6268;48.188;17.134;2023-05-02T08:43:10;25.00;73.10
12408;DHT22;6268;48.188;17.134;2023-05-02T08:45:40;25.20;74.00
12408;DHT22;6268;48.188;17.134;2023-05-02T08:48:12;25.40;73.60
12408;DHT22;6268;48.188;17.134;2023-05-02T08:50:44;25.70;73.10
12408;DHT22;6268;48.188;17.134;2023-05-02T08:53:14;25.00;70.80
12408;DHT22;6268;48.188;17.134;2023-05-02T08:55:45;24.10;74.20
12408;DHT22;6268;48.188;17.134;2023-05-02T08:58:17;23.60;76.50
12408;DHT22;6268;48.188;17.134;2023-05-02T09:00:48;23.20;76.50
12408;DHT22;6268;48.188;17.134;2023-05-02T09:03:24;22.90;78.10
12408;DHT22;6268;48.188;17.134;2023-05-02T09:06:04;22.60;80.80
12408;DHT22;6268;48.188;17.134;2023-05-02T09:08:39;22.10;82.00
12408;DHT22;6268;48.188;17.134;2023-05-02T09:11:10;22.00;82.80
12408;DHT22;6268;48.188;17.134;2023-05-02T09:13:42;21.80;85.10
12408;DHT22;6268;48.188;17.134;2023-05-02T09:16:13;21.70;84.40
12408;DHT22;6268;48.188;17.134;2023-05-02T09:18:43;21.60;85.00
12408;DHT22;6268;48.188;17.134;2023-05-02T09:21:14;21.60;86.20
12408;DHT22;6268;48.188;17.134;2023-05-02T09:23:48;21.60;88.40
12408;DHT22;6268;48.188;17.134;2023-05-02T09:26:18;21.40;89.20
12408;DHT22;6268;48.188;17.134;2023-05-02T09:28:50;20.90;90.30
12408;DHT22;6268;48.188;17.134;2023-05-02T09:31:21;20.50;92.10
12408;DHT22;6268;48.188;17.134;2023-05-02T09:34:13;20.40;93.10
12408;DHT22;6268;48.188;17.134;2023-05-02T09:36:45;20.30;95.10
12408;DHT22;6268;48.188;17.134;2023-05-02T09:39:18;20.50;95.80
12408;DHT22;6268;48.188;17.134;2023-05-02T09:41:51;20.70;96.00
12408;DHT22;6268;48.188;17.134;2023-05-02T09:44:24;20.70;96.30
12408;DHT22;6268;48.188;17.134;2023-05-02T09:46:55;20.70;96.50
12408;DHT22;6268;48.188;17.134;2023-05-02T09:49:41;21.00;95.80
12408;DHT22;6268;48.188;17.134;2023-05-02T09:52:14;21.00;94.90
12408;DHT22;6268;48.188;17.134;2023-05-02T09:54:44;20.80;95.20
12408;DHT22;6268;48.188;17.134;2023-05-02T09:57:13;21.00;95.70
12408;DHT22;6268;48.188;17.134;2023-05-02T09:59:52;21.00;94.80
12408;DHT22;6268;48.188;17.134;2023-05-02T10:02:23;21.10;95.40
12408;DHT22;6268;48.188;17.134;2023-05-02T10:04:53;21.60;94.50
12408;DHT22;6268;48.188;17.134;2023-05-02T10:07:25;21.70;93.40
12408;DHT22;6268;48.188;17.134;2023-05-02T10:09:56;21.40;93.70
12408;DHT22;6268;48.188;17.134;2023-05-02T10:12:29;21.60;94.40
12408;DHT22;6268;48.188;17.134;2023-05-02T10:15:03;21.60;93.90
12408;DHT22;6268;48.188;17.134;2023-05-02T10:17:38;21.70;93.70
12408;DHT22;6268;48.188;17.134;2023-05-02T10:20:15;21.70;92.80
12408;DHT22;6268;48.188;17.134;2023-05-02T10:22:50;21.50;92.90
12408;DHT22;6268;48.188;17.134;2023-05-02T10:25:20;21.40;93.00
12408;DHT22;6268;48.188;17.134;2023-05-02T10:27:49;21.40;93.20
12408;DHT22;6268;48.188;17.134;2023-05-02T10:30:20;21.50;93.40
12408;DHT22;6268;48.188;17.134;2023-05-02T10:32:50;21.60;93.40
12408;DHT22;6268;48.188;17.134;2023-05-02T10:35:20;21.40;93.10
12408;DHT22;6268;48.188;17.134;2023-05-02T10:37:52;21.30;93.50
12408;DHT22;6268;48.188;17.134;2023-05-02T10:40:21;21.20;93.70
12408;DHT22;6268;48.188;17.134;2023-05-02T10:42:50;21.00;93.90
12408;DHT22;6268;48.188;17.134;2023-05-02T10:45:32;20.80;94.20
12408;DHT22;6268;48.188;17.134;2023-05-02T10:48:15;20.70;94.80
12408;DHT22;6268;48.188;17.134;2023-05-02T10:50:45;20.90;95.60
12408;DHT22;6268;48.188;17.134;2023-05-02T10:53:26;21.10;94.60
12408;DHT22;6268;48.188;17.134;2023-05-02T10:56:14;20.80;95.40
12408;DHT22;6268;48.188;17.134;2023-05-02T10:58:45;21.10;95.00
12408;DHT22;6268;48.188;17.134;2023-05-02T11:01:36;21.00;95.50
12408;DHT22;6268;48.188;17.134;2023-05-02T11:04:07;21.20;95.30
12408;DHT22;6268;48.188;17.134;2023-05-02T11:09:45;21.20;94.70
12408;DHT22;6268;48.188;17.134;2023-05-02T11:12:45;21.40;94.40
12408;DHT22;6268;48.188;17.134;2023-05-02T11:15:53;21.50;94.30
12408;DHT22;6268;48.188;17.134;2023-05-02T11:18:23;21.50;93.30
12408;DHT22;6268;48.188;17.134;2023-05-02T11:20:52;21.40;95.00
12408;DHT22;6268;48.188;17.134;2023-05-02T11:27:38;21.20;95.10
12408;DHT22;6268;48.188;17.134;2023-05-02T11:30:11;21.10;95.40
12408;DHT22;6268;48.188;17.134;2023-05-02T11:33:14;21.00;96.10
12408;DHT22;6268;48.188;17.134;2023-05-02T11:35:47;20.80;97.70
12408;DHT22;6268;48.188;17.134;2023-05-02T11:38:18;21.10;97.00
12408;DHT22;6268;48.188;17.134;2023-05-02T11:40:53;21.10;97.20
12408;DHT22;6268;48.188;17.134;2023-05-02T11:43:25;21.30;97.10
12408;DHT22;6268;48.188;17.134;2023-05-02T11:46:00;21.50;97.80
12408;DHT22;6268;48.188;17.134;2023-05-02T11:48:31;21.70;97.30
12408;DHT22;6268;48.188;17.134;2023-05-02T11:51:00;21.70;96.90
12408;DHT22;6268;48.188;17.134;2023-05-02T11:53:33;21.60;97.00
12408;DHT22;6268;48.188;17.134;2023-05-02T11:56:08;21.90;96.10
12408;DHT22;6268;48.188;17.134;2023-05-02T11:58:37;21.70;97.00
12408;DHT22;6268;48.188;17.134;2023-05-02T12:01:14;21.80;95.40
12408;DHT22;6268;48.188;17.134;2023-05-02T12:03:43;21.60;94.90
12408;DHT22;6268;48.188;17.134;2023-05-02T12:06:16;21.10;95.00
12408;DHT22;6268;48.188;17.134;2023-05-02T12:08:46;21.10;96.60
12408;DHT22;6268;48.188;17.134;2023-05-02T12:11:16;21.00;96.70
12408;DHT22;6268;48.188;17.134;2023-05-02T12:13:45;21.10;97.60
12408;DHT22;6268;48.188;17.134;2023-05-02T12:16:18;21.10;98.00
12408;DHT22;6268;48.188;17.134;2023-05-02T12:18:47;21.20;98.00
12408;DHT22;6268;48.188;17.134;2023-05-02T12:21:16;21.20;97.40
12408;DHT22;6268;48.188;17.134;2023-05-02T12:23:45;21.20;98.50
12408;DHT22;6268;48.188;17.134;2023-05-02T12:26:18;21.00;99.00
12408;DHT22;6268;48.188;17.134;2023-05-02T12:28:51;20.90;99.00
12408;DHT22;6268;48.188;17.134;2023-05-02T12:31:23;20.80;99.90
12408;DHT22;6268;48.188;17.134;2023-05-02T12:33:53;20.80;99.90
12408;DHT22;6268;48.188;17.134;2023-05-02T12:36:24;20.70;99.90
12408;DHT22;6268;48.188;17.134;2023-05-02T12:38:55;20.80;99.90
12408;DHT22;6268;48.188;17.134;2023-05-02T12:41:33;20.90;99.90
12408;DHT22;6268;48.188;17.134;2023-05-02T12:44:03;21.10;99.90
12408;DHT22;6268;48.188;17.134;2023-05-02T12:46:34;21.10;99.90
12408;DHT22;6268;48.188;17.134;2023-05-02T12:49:04;21.10;99.90
12408;DHT22;6268;48.188;17.134;2023-05-02T12:51:35;21.10;99.90
12408;DHT22;6268;48.188;17.134;2023-05-02T12:54:04;21.20;99.90
12408;DHT22;6268;48.188;17.134;2023-05-02T12:56:40;21.10;99.90
12408;DHT22;6268;48.188;17.134;2023-05-02T12:59:25;20.90;99.90
12408;DHT22;6268;48.188;17.134;2023-05-02T13:01:56;21.00;99.90
12408;DHT22;6268;48.188;17.134;2023-05-02T13:04:33;20.90;99.90
12408;DHT22;6268;48.188;17.134;2023-05-02T13:07:02;20.70;99.90
12408;DHT22;6268;48.188;17.134;2023-05-02T13:09:31;20.80;99.90
12408;DHT22;6268;48.188;17.134;2023-05-02T13:12:00;20.70;99.90
12408;DHT22;6268;48.188;17.134;2023-05-02T13:14:29;20.80;99.80
12408;DHT22;6268;48.188;17.134;2023-05-02T13:17:00;21.00;99.90
12408;DHT22;6268;48.188;17.134;2023-05-02T13:19:28;20.90;98.80
12408;DHT22;6268;48.188;17.134;2023-05-02T13:21:58;20.60;97.70
12408;DHT22;6268;48.188;17.134;2023-05-02T13:24:27;20.60;98.70
12408;DHT22;6268;48.188;17.134;2023-05-02T13:26:55;20.60;99.50
12408;DHT22;6268;48.188;17.134;2023-05-02T13:29:24;20.70;99.40
12408;DHT22;6268;48.188;17.134;2023-05-02T13:31:53;21.00;98.50
12408;DHT22;6268;48.188;17.134;2023-05-02T13:34:23;20.90;98.30
12408;DHT22;6268;48.188;17.134;2023-05-02T13:36:52;20.80;97.70
12408;DHT22;6268;48.188;17.134;2023-05-02T13:39:21;20.60;99.40
12408;DHT22;6268;48.188;17.134;2023-05-02T13:41:50;20.80;98.90
12408;DHT22;6268;48.188;17.134;2023-05-02T13:44:19;21.00;98.90
12408;DHT22;6268;48.188;17.134;2023-05-02T13:46:47;21.00;97.00
12408;DHT22;6268;48.188;17.134;2023-05-02T13:49:16;21.00;97.60
12408;DHT22;6268;48.188;17.134;2023-05-02T13:51:46;20.70;97.60
12408;DHT22;6268;48.188;17.134;2023-05-02T13:54:16;20.60;98.80
12408;DHT22;6268;48.188;17.134;2023-05-02T13:56:44;20.60;99.10
12408;DHT22;6268;48.188;17.134;2023-05-02T13:59:13;20.30;98.10
12408;DHT22;6268;48.188;17.134;2023-05-02T14:01:42;20.40;97.70
12408;DHT22;6268;48.188;17.134;2023-05-02T14:04:11;20.30;98.50
12408;DHT22;6268;48.188;17.134;2023-05-02T14:06:40;20.30;98.80
12408;DHT22;6268;48.188;17.134;2023-05-02T14:09:10;20.30;99.50
12408;DHT22;6268;48.188;17.134;2023-05-02T14:11:39;20.40;98.60
12408;DHT22;6268;48.188;17.134;2023-05-02T14:14:07;20.40;98.30
12408;DHT22;6268;48.188;17.134;2023-05-02T14:16:38;20.50;98.70
12408;DHT22;6268;48.188;17.134;2023-05-02T14:19:07;20.40;99.10
12408;DHT22;6268;48.188;17.134;2023-05-02T14:21:36;20.50;98.50
12408;DHT22;6268;48.188;17.134;2023-05-02T14:24:05;20.50;97.80
12408;DHT22;6268;48.188;17.134;2023-05-02T14:26:35;20.40;99.00
12408;DHT22;6268;48.188;17.134;2023-05-02T14:29:04;20.50;98.40
12408;DHT22;6268;48.188;17.134;2023-05-02T14:31:33;20.60;98.90
12408;DHT22;6268;48.188;17.134;2023-05-02T14:34:02;20.60;99.50
12408;DHT22;6268;48.188;17.134;2023-05-02T14:36:34;20.40;99.40
12408;DHT22;6268;48.188;17.134;2023-05-02T14:39:02;20.30;99.90
12408;DHT22;6268;48.188;17.134;2023-05-02T14:41:31;20.30;99.90
12408;DHT22;6268;48.188;17.134;2023-05-02T14:44:01;19.90;99.90
12408;DHT22;6268;48.188;17.134;2023-05-02T14:46:30;19.80;99.90
12408;DHT22;6268;48.188;17.134;2023-05-02T14:48:59;19.70;99.90
12408;DHT22;6268;48.188;17.134;2023-05-02T14:51:27;19.50;99.90
12408;DHT22;6268;48.188;17.134;2023-05-02T14:53:57;19.50;99.90
12408;DHT22;6268;48.188;17.134;2023-05-02T14:56:26;19.60;99.90
12408;DHT22;6268;48.188;17.134;2023-05-02T14:58:55;19.40;99.90
12408;DHT22;6268;48.188;17.134;2023-05-02T15:01:25;19.40;99.90
12408;DHT22;6268;48.188;17.134;2023-05-02T15:03:55;19.50;99.90
12408;DHT22;6268;48.188;17.134;2023-05-02T15:06:33;19.50;99.90
12408;DHT22;6268;48.188;17.134;2023-05-02T15:09:03;19.50;99.90
12408;DHT22;6268;48.188;17.134;2023-05-02T15:11:32;19.20;99.90
12408;DHT22;6268;48.188;17.134;2023-05-02T15:14:00;19.20;99.90
12408;DHT22;6268;48.188;17.134;2023-05-02T15:16:30;19.30;99.90
12408;DHT22;6268;48.188;17.134;2023-05-02T15:18:59;19.20;99.90
12408;DHT22;6268;48.188;17.134;2023-05-02T15:21:28;19.00;99.90
12408;DHT22;6268;48.188;17.134;2023-05-02T15:23:58;19.10;99.90
12408;DHT22;6268;48.188;17.134;2023-05-02T15:26:26;19.00;99.90
12408;DHT22;6268;48.188;17.134;2023-05-02T15:28:55;18.90;99.90
12408;DHT22;6268;48.188;17.134;2023-05-02T15:31:24;19.00;99.90
12408;DHT22;6268;48.188;17.134;2023-05-02T15:33:55;19.00;99.90
12408;DHT22;6268;48.188;17.134;2023-05-02T15:36:26;18.90;99.90
12408;DHT22;6268;48.188;17.134;2023-05-02T15:38:56;18.90;99.90
12408;DHT22;6268;48.188;17.134;2023-05-02T15:41:24;19.00;99.90
12408;DHT22;6268;48.188;17.134;2023-05-02T15:43:53;18.90;99.90
12408;DHT22;6268;48.188;17.134;2023-05-02T15:46:24;19.00;99.90
12408;DHT22;6268;48.188;17.134;2023-05-02T15:48:53;19.10;99.90
12408;DHT22;6268;48.188;17.134;2023-05-02T15:51:23;19.10;99.90
12408;DHT22;6268;48.188;17.134;2023-05-02T15:53:54;18.90;99.90
12408;DHT22;6268;48.188;17.134;2023-05-02T15:56:23;19.00;99.90
12408;DHT22;6268;48.188;17.134;2023-05-02T15:58:52;19.10;99.90
12408;DHT22;6268;48.188;17.134;2023-05-02T16:01:21;19.00;99.90